createdAt,value
2022-08-03T00:00:34.978Z,100.00
2022-08-03T00:02:36.744Z,100.00
2022-08-03T00:04:38.838Z,100.00
2022-08-03T00:06:40.781Z,100.00
2022-08-03T00:08:42.500Z,100.00
2022-08-03T00:10:44.344Z,100.00
2022-08-03T00:12:46.220Z,100.00
2022-08-03T00:14:47.956Z,100.00
2022-08-03T00:16:49.957Z,100.00
2022-08-03T00:18:52.304Z,100.00
2022-08-03T00:20:54.098Z,100.00
2022-08-03T00:22:56.021Z,100.00
2022-08-03T00:24:57.803Z,100.00
2022-08-03T00:26:59.760Z,100.00
2022-08-03T00:29:01.673Z,100.00
2022-08-03T00:31:03.548Z,100.00
2022-08-03T00:33:05.611Z,100.00
2022-08-03T00:35:14.782Z,100.00
2022-08-03T00:37:40.796Z,100.00
2022-08-03T00:39:43.704Z,100.00
2022-08-03T00:41:45.488Z,100.00
2022-08-03T00:43:47.290Z,100.00
2022-08-03T00:45:49.110Z,100.00
2022-08-03T00:47:53.324Z,100.00
2022-08-03T00:49:55.152Z,100.00
2022-08-03T00:51:56.915Z,100.00
2022-08-03T00:53:58.987Z,100.00
2022-08-03T00:56:00.852Z,100.00
2022-08-03T00:58:03.618Z,100.00
2022-08-03T01:00:07.939Z,100.00
2022-08-03T01:02:09.699Z,100.00
2022-08-03T01:04:11.539Z,100.00
2022-08-03T01:06:19.483Z,100.00
2022-08-03T01:08:46.975Z,100.00
2022-08-03T01:11:10.726Z,100.00
2022-08-03T01:14:00.314Z,100.00
2022-08-03T01:16:15.633Z,100.00
2022-08-03T01:19:02.125Z,100.00
2022-08-03T01:21:10.474Z,100.00
2022-08-03T01:23:42.617Z,100.00
2022-08-03T01:25:55.442Z,100.00
2022-08-03T01:27:57.182Z,100.00
2022-08-03T01:30:05.160Z,100.00
2022-08-03T01:33:00.339Z,100.00
2022-08-03T01:34:50.970Z,100.00
2022-08-03T01:36:56.780Z,100.00
2022-08-03T01:39:01.922Z,100.00
2022-08-03T01:41:07.622Z,100.00
2022-08-03T01:43:14.953Z,100.00
2022-08-03T01:45:38.763Z,100.00
2022-08-03T01:47:42.271Z,100.00
2022-08-03T01:49:45.757Z,100.00
2022-08-03T01:52:02.681Z,100.00
2022-08-03T01:54:08.351Z,100.00
2022-08-03T01:56:10.206Z,100.00
2022-08-03T01:58:14.663Z,100.00
2022-08-03T02:00:16.945Z,100.00
2022-08-03T02:02:32.763Z,100.00
2022-08-03T02:04:38.735Z,100.00
2022-08-03T02:07:01.911Z,100.00
2022-08-03T02:09:06.056Z,100.00
2022-08-03T02:11:08.312Z,100.00
2022-08-03T02:13:10.890Z,100.00
2022-08-03T02:15:15.432Z,100.00
2022-08-03T02:17:18.420Z,100.00
2022-08-03T02:19:42.503Z,100.00
2022-08-03T02:21:56.510Z,100.00
2022-08-03T02:24:04.091Z,100.00
2022-08-03T02:26:09.186Z,100.00
2022-08-03T02:28:16.536Z,100.00
2022-08-03T02:30:19.777Z,100.00
2022-08-03T02:32:28.018Z,100.00
2022-08-03T02:34:31.592Z,100.00
2022-08-03T02:36:38.062Z,100.00
2022-08-03T02:38:42.795Z,100.00
2022-08-03T02:40:46.312Z,100.00
2022-08-03T02:42:51.801Z,100.00
2022-08-03T02:44:57.240Z,100.00
2022-08-03T02:47:09.549Z,100.00
2022-08-03T02:49:35.341Z,100.00
2022-08-03T02:51:36.989Z,100.00
2022-08-03T02:53:40.816Z,100.00
2022-08-03T02:55:45.796Z,100.00
2022-08-03T02:57:50.436Z,100.00
2022-08-03T02:59:53.416Z,100.00
2022-08-03T03:01:55.926Z,100.00
2022-08-03T03:03:58.362Z,100.00
2022-08-03T03:06:01.191Z,100.00
2022-08-03T03:08:18.004Z,100.00
2022-08-03T03:10:24.926Z,100.00
2022-08-03T03:12:27.949Z,100.00
2022-08-03T03:14:33.626Z,100.00
2022-08-03T03:16:36.562Z,100.00
2022-08-03T03:18:39.687Z,100.00
2022-08-03T03:20:41.939Z,100.00
2022-08-03T03:22:45.376Z,100.00
2022-08-03T03:24:47.811Z,100.00
2022-08-03T03:26:50.119Z,100.00
2022-08-03T03:28:52.508Z,100.00
2022-08-03T03:30:54.432Z,100.00
2022-08-03T03:32:58.317Z,100.00
2022-08-03T03:35:00.548Z,100.00
2022-08-03T03:37:02.499Z,100.00
2022-08-03T03:39:15.445Z,100.00
2022-08-03T03:41:17.857Z,100.00
2022-08-03T03:43:23.943Z,100.00
2022-08-03T03:45:26.719Z,100.00
2022-08-03T03:47:32.147Z,100.00
2022-08-03T03:49:34.868Z,100.00
2022-08-03T03:51:36.989Z,100.00
2022-08-03T03:53:38.778Z,100.00
2022-08-03T03:55:57.812Z,100.00
2022-08-03T03:58:03.495Z,100.00
2022-08-03T04:00:05.902Z,100.00
2022-08-03T04:02:09.352Z,100.00
2022-08-03T04:04:11.373Z,100.00
2022-08-03T04:06:13.989Z,100.00
2022-08-03T04:08:18.934Z,100.00
2022-08-03T04:10:23.907Z,100.00
2022-08-03T04:12:28.376Z,100.00
2022-08-03T04:14:34.741Z,100.00
2022-08-03T04:16:43.625Z,100.00
2022-08-03T04:18:52.682Z,100.00
2022-08-03T04:20:55.835Z,100.00
2022-08-03T04:23:00.225Z,100.00
2022-08-03T04:25:05.429Z,100.00
2022-08-03T04:27:11.547Z,100.00
2022-08-03T04:29:14.751Z,100.00
2022-08-03T04:31:18.024Z,100.00
2022-08-03T04:33:21.821Z,100.00
2022-08-03T04:36:02.222Z,100.00
2022-08-03T04:37:53.581Z,100.00
2022-08-03T04:39:59.354Z,100.00
2022-08-03T04:42:08.667Z,100.00
2022-08-03T04:44:13.499Z,100.00
2022-08-03T04:46:16.326Z,100.00
2022-08-03T04:48:19.260Z,100.00
2022-08-03T04:50:22.140Z,100.00
2022-08-03T04:52:24.488Z,100.00
2022-08-03T04:54:26.366Z,100.00
2022-08-03T04:56:28.160Z,100.00
2022-08-03T04:58:29.967Z,100.00
2022-08-03T05:00:32.389Z,100.00
2022-08-03T05:02:34.221Z,100.00
2022-08-03T05:04:36.057Z,100.00
2022-08-03T05:06:47.915Z,100.00
2022-08-03T05:08:50.851Z,100.00
2022-08-03T05:10:52.812Z,100.00
2022-08-03T05:12:54.676Z,100.00
2022-08-03T05:14:56.415Z,100.00
2022-08-03T05:16:58.202Z,100.00
2022-08-03T05:19:00.075Z,100.00
2022-08-03T05:21:02.047Z,100.00
2022-08-03T05:23:03.894Z,100.00
2022-08-03T05:25:05.968Z,100.00
2022-08-03T05:27:07.701Z,100.00
2022-08-03T05:29:09.501Z,100.00
2022-08-03T05:31:11.552Z,100.00
2022-08-03T05:33:13.314Z,100.00
2022-08-03T05:35:57.883Z,100.00
2022-08-03T05:37:37.076Z,100.00
2022-08-03T05:39:38.909Z,100.00
2022-08-03T05:41:40.678Z,100.00
2022-08-03T05:43:42.503Z,100.00
2022-08-03T05:45:44.382Z,100.00
2022-08-03T05:47:46.338Z,100.00
2022-08-03T05:49:51.742Z,100.00
2022-08-03T05:52:00.496Z,100.00
2022-08-03T05:54:13.831Z,100.00
2022-08-03T05:56:16.791Z,100.00
2022-08-03T05:58:18.695Z,100.00
2022-08-03T06:00:20.484Z,100.00
2022-08-03T06:02:24.106Z,100.00
2022-08-03T06:04:25.998Z,100.00
2022-08-03T06:06:32.093Z,100.00
2022-08-03T06:08:34.916Z,100.00
2022-08-03T06:10:38.273Z,100.00
2022-08-03T06:12:40.154Z,100.00
2022-08-03T06:14:42.294Z,100.00
2022-08-03T06:16:44.110Z,100.00
2022-08-03T06:18:45.950Z,100.00
2022-08-03T06:20:49.398Z,100.00
2022-08-03T06:23:00.455Z,100.00
2022-08-03T06:25:04.009Z,100.00
2022-08-03T06:27:07.010Z,100.00
2022-08-03T06:29:08.853Z,100.00
2022-08-03T06:31:11.972Z,100.00
2022-08-03T06:33:13.770Z,100.00
2022-08-03T06:35:15.533Z,100.00
2022-08-03T06:37:17.353Z,100.00
2022-08-03T06:39:19.326Z,100.00
2022-08-03T06:41:21.047Z,100.00
2022-08-03T06:43:23.033Z,100.00
2022-08-03T06:45:25.183Z,100.00
2022-08-03T06:47:33.668Z,100.00
2022-08-03T06:49:35.662Z,100.00
2022-08-03T06:52:03.051Z,99.15
2022-08-03T06:53:59.542Z,93.25
2022-08-03T06:56:01.404Z,88.25
2022-08-03T06:58:03.728Z,84.12
2022-08-03T07:00:11.861Z,82.19
2022-08-03T07:02:19.061Z,76.69
2022-08-03T07:04:21.449Z,73.28
2022-08-03T07:06:23.186Z,69.94
2022-08-03T07:08:33.725Z,68.78
2022-08-03T07:10:36.557Z,62.00
2022-08-03T07:12:55.606Z,58.59
2022-08-03T07:15:02.258Z,58.32
2022-08-03T07:17:11.461Z,56.82
2022-08-03T07:19:13.667Z,57.78
2022-08-03T07:21:15.560Z,56.51
2022-08-03T07:23:18.927Z,57.90
2022-08-03T07:25:21.297Z,58.62
2022-08-03T07:27:23.184Z,54.11
2022-08-03T07:29:25.239Z,51.66
2022-08-03T07:31:27.267Z,49.60
2022-08-03T07:33:36.387Z,48.82
2022-08-03T07:35:38.882Z,46.20
2022-08-03T07:37:40.622Z,43.53
2022-08-03T07:39:55.928Z,43.51
2022-08-03T07:41:57.639Z,43.72
2022-08-03T07:43:59.376Z,44.98
2022-08-03T07:46:03.062Z,45.78
2022-08-03T07:48:10.109Z,41.93
2022-08-03T07:50:13.839Z,42.49
2022-08-03T07:52:15.839Z,44.40
2022-08-03T07:54:17.735Z,45.96
2022-08-03T07:56:19.478Z,42.32
2022-08-03T07:58:24.183Z,43.81
2022-08-03T08:00:26.606Z,47.27
2022-08-03T08:02:28.357Z,45.47
2022-08-03T08:04:30.167Z,44.45
2022-08-03T08:06:32.152Z,44.08
2022-08-03T08:08:33.903Z,44.75
2022-08-03T08:10:36.001Z,41.99
2022-08-03T08:12:39.250Z,41.46
2022-08-03T08:14:40.837Z,40.24
2022-08-03T08:16:42.686Z,42.62
2022-08-03T08:18:44.598Z,40.43
2022-08-03T08:20:46.422Z,40.46
2022-08-03T08:22:48.400Z,39.10
2022-08-03T08:24:52.177Z,40.42
2022-08-03T08:26:54.213Z,39.77
2022-08-03T08:28:56.210Z,38.80
2022-08-03T08:30:57.998Z,40.77
2022-08-03T08:32:59.975Z,40.24
2022-08-03T08:35:02.023Z,41.55
2022-08-03T08:37:04.008Z,38.64
2022-08-03T08:39:05.788Z,38.69
2022-08-03T08:41:08.213Z,40.34
2022-08-03T08:43:10.337Z,41.17
2022-08-03T08:45:12.112Z,43.25
2022-08-03T08:47:14.644Z,44.75
2022-08-03T08:49:22.977Z,43.43
2022-08-03T08:51:54.827Z,45.39
2022-08-03T08:53:53.597Z,42.32
2022-08-03T08:56:00.685Z,43.94
2022-08-03T08:58:05.872Z,47.04
2022-08-03T09:00:10.562Z,44.34
2022-08-03T09:02:12.573Z,45.49
2022-08-03T09:04:14.459Z,45.96
2022-08-03T09:06:16.683Z,43.60
2022-08-03T09:08:19.115Z,44.07
2022-08-03T09:10:21.077Z,45.93
2022-08-03T09:12:40.876Z,46.97
2022-08-03T09:15:00.769Z,44.77
2022-08-03T09:17:05.593Z,44.69
2022-08-03T09:19:13.754Z,42.08
2022-08-03T09:21:33.291Z,46.43
2022-08-03T09:24:02.162Z,43.30
2022-08-03T09:26:05.679Z,42.99
2022-08-03T09:28:52.706Z,44.68
2022-08-03T09:30:39.972Z,39.78
2022-08-03T09:32:41.945Z,40.86
2022-08-03T09:34:43.689Z,41.30
2022-08-03T09:36:47.328Z,41.74
2022-08-03T09:39:13.432Z,42.19
2022-08-03T09:41:18.889Z,42.12
2022-08-03T09:43:21.484Z,41.43
2022-08-03T09:45:27.315Z,39.92
2022-08-03T09:47:31.157Z,39.42
2022-08-03T09:49:33.197Z,38.03
2022-08-03T09:52:32.074Z,37.72
2022-08-03T09:53:58.819Z,36.77
2022-08-03T09:56:35.217Z,38.06
2022-08-03T09:58:26.899Z,38.06
2022-08-03T10:00:28.809Z,35.44
2022-08-03T10:02:30.817Z,35.89
2022-08-03T10:04:32.831Z,36.67
2022-08-03T10:06:34.555Z,39.32
2022-08-03T10:08:36.317Z,36.22
2022-08-03T10:10:45.395Z,38.75
2022-08-03T10:12:47.194Z,36.53
2022-08-03T10:14:49.447Z,35.59
2022-08-03T10:16:51.197Z,36.00
2022-08-03T10:18:52.933Z,37.25
2022-08-03T10:21:03.336Z,36.89
2022-08-03T10:23:05.731Z,37.30
2022-08-03T10:25:09.813Z,38.63
2022-08-03T10:27:13.517Z,37.75
2022-08-03T10:29:22.729Z,37.85
2022-08-03T10:31:25.373Z,37.60
2022-08-03T10:33:51.060Z,37.97
2022-08-03T10:35:57.420Z,37.38
2022-08-03T10:38:05.984Z,36.71
2022-08-03T10:40:10.052Z,36.58
2022-08-03T10:42:14.696Z,37.72
2022-08-03T10:44:21.554Z,38.06
2022-08-03T10:46:23.709Z,34.94
2022-08-03T10:48:26.221Z,35.86
2022-08-03T10:50:28.687Z,37.39
2022-08-03T10:52:33.710Z,36.80
2022-08-03T10:54:44.650Z,35.32
2022-08-03T10:56:49.774Z,34.85
2022-08-03T10:58:57.938Z,35.75
2022-08-03T11:01:00.587Z,34.64
2022-08-03T11:03:11.648Z,35.70
2022-08-03T11:05:27.837Z,35.02
2022-08-03T11:07:29.864Z,35.15
2022-08-03T11:09:42.576Z,36.18
2022-08-03T11:11:47.140Z,35.75
2022-08-03T11:14:02.216Z,37.63
2022-08-03T11:16:21.994Z,36.46
2022-08-03T11:18:26.831Z,35.90
2022-08-03T11:20:52.198Z,35.88
2022-08-03T11:22:54.077Z,37.21
2022-08-03T11:24:55.856Z,36.12
2022-08-03T11:27:15.979Z,35.16
2022-08-03T11:29:31.077Z,36.77
2022-08-03T11:31:49.160Z,35.86
2022-08-03T11:34:09.489Z,35.46
2022-08-03T11:36:11.516Z,35.87
2022-08-03T11:38:13.454Z,35.38
2022-08-03T11:40:32.959Z,37.04
2022-08-03T11:42:34.662Z,35.75
2022-08-03T11:44:42.874Z,39.01
2022-08-03T11:46:49.523Z,35.16
2022-08-03T11:48:51.353Z,37.62
2022-08-03T11:50:53.211Z,36.47
2022-08-03T11:52:55.114Z,38.07
2022-08-03T11:54:57.513Z,36.53
2022-08-03T11:56:59.756Z,35.72
2022-08-03T11:59:18.662Z,35.07
2022-08-03T12:01:24.908Z,35.53
2022-08-03T12:03:33.189Z,34.96
2022-08-03T12:05:52.917Z,36.21
2022-08-03T12:08:03.887Z,35.13
2022-08-03T12:10:13.019Z,35.03
2022-08-03T12:12:16.547Z,35.27
2022-08-03T12:14:49.275Z,37.79
2022-08-03T12:16:47.761Z,38.67
2022-08-03T12:19:16.129Z,36.21
2022-08-03T12:21:17.954Z,36.52
2022-08-03T12:23:20.303Z,37.82
2022-08-03T12:25:38.748Z,39.61
2022-08-03T12:27:41.869Z,37.58
2022-08-03T12:29:43.767Z,37.26
2022-08-03T12:32:00.589Z,38.71
2022-08-03T12:34:05.863Z,38.52
2022-08-03T12:36:10.930Z,38.23
2022-08-03T12:38:13.064Z,38.25
2022-08-03T12:40:19.292Z,37.54
2022-08-03T12:42:29.941Z,37.96
2022-08-03T12:44:33.590Z,40.15
2022-08-03T12:46:45.360Z,39.25
2022-08-03T12:49:06.753Z,38.58
2022-08-03T12:51:10.644Z,37.46
2022-08-03T12:53:12.376Z,37.78
2022-08-03T12:55:20.361Z,38.28
2022-08-03T12:57:22.231Z,37.05
2022-08-03T12:59:25.623Z,38.15
2022-08-03T13:01:37.650Z,38.11
2022-08-03T13:03:45.779Z,38.87
2022-08-03T13:05:51.680Z,38.39
2022-08-03T13:07:53.508Z,40.40
2022-08-03T13:09:56.615Z,38.69
2022-08-03T13:12:13.389Z,38.30
2022-08-03T13:14:16.780Z,39.19
2022-08-03T13:16:22.947Z,39.17
2022-08-03T13:18:24.976Z,39.13
2022-08-03T13:20:26.766Z,38.96
2022-08-03T13:22:28.534Z,37.36
2022-08-03T13:24:31.694Z,37.41
2022-08-03T13:26:33.750Z,40.04
2022-08-03T13:28:35.587Z,40.82
2022-08-03T13:30:38.057Z,41.21
2022-08-03T13:32:40.193Z,39.55
2022-08-03T13:34:42.405Z,38.03
2022-08-03T13:37:07.959Z,39.08
2022-08-03T13:39:05.948Z,39.52
2022-08-03T13:41:11.041Z,39.33
2022-08-03T13:43:12.764Z,40.05
2022-08-03T13:45:14.603Z,39.49
2022-08-03T13:47:16.423Z,40.11
2022-08-03T13:49:18.270Z,39.96
2022-08-03T13:51:22.602Z,39.74
2022-08-03T13:53:24.733Z,39.63
2022-08-03T13:55:26.749Z,38.95
2022-08-03T13:58:04.379Z,39.65
2022-08-03T13:59:50.800Z,40.37
2022-08-03T14:01:55.712Z,41.17
2022-08-03T14:03:57.739Z,41.50
2022-08-03T14:05:59.500Z,43.02
2022-08-03T14:08:04.821Z,41.61
2022-08-03T14:10:07.288Z,41.33
2022-08-03T14:12:10.352Z,41.90
2022-08-03T14:14:13.325Z,41.83
2022-08-03T14:16:17.016Z,41.11
2022-08-03T14:18:28.839Z,39.88
2022-08-03T14:20:38.926Z,43.80
2022-08-03T14:22:50.798Z,39.38
2022-08-03T14:24:52.787Z,41.64
2022-08-03T14:27:00.153Z,39.72
2022-08-03T14:29:08.805Z,39.64
2022-08-03T14:31:15.476Z,39.98
2022-08-03T14:33:33.029Z,39.31
2022-08-03T14:35:34.841Z,40.73
2022-08-03T14:37:36.645Z,40.71
2022-08-03T14:42:00.212Z,40.37
2022-08-03T14:44:02.553Z,40.66
2022-08-03T14:46:04.461Z,41.37
2022-08-03T14:50:29.094Z,39.88
2022-08-03T14:50:36.250Z,38.95
2022-08-03T14:52:42.762Z,39.72
2022-08-03T14:54:45.583Z,41.16
2022-08-03T14:56:47.354Z,40.92
2022-08-03T14:58:49.117Z,40.51
2022-08-03T15:00:54.137Z,40.47
2022-08-03T15:02:55.911Z,41.13
2022-08-03T15:04:57.816Z,41.28
2022-08-03T15:06:59.702Z,41.54
2022-08-03T15:09:21.501Z,41.54
2022-08-03T15:11:23.155Z,41.26
2022-08-03T15:13:25.032Z,42.44
2022-08-03T15:15:26.754Z,41.19
2022-08-03T15:17:28.651Z,43.00
2022-08-03T15:20:00.265Z,41.68
2022-08-03T15:21:52.388Z,40.62
2022-08-03T15:23:54.122Z,40.62
2022-08-03T15:26:06.471Z,41.67
2022-08-03T15:28:18.096Z,40.71
2022-08-03T15:30:19.906Z,44.75
2022-08-03T15:32:21.780Z,42.13
2022-08-03T15:34:23.502Z,42.02
2022-08-03T15:36:25.241Z,43.11
2022-08-03T15:38:27.067Z,40.87
2022-08-03T15:40:28.913Z,40.88
2022-08-03T15:42:32.914Z,41.73
2022-08-03T15:44:34.753Z,40.83
2022-08-03T15:46:36.802Z,41.54
2022-08-03T15:48:39.606Z,41.27
2022-08-03T15:50:41.499Z,42.02
2022-08-03T15:52:45.529Z,41.31
2022-08-03T15:54:47.570Z,40.70
2022-08-03T15:56:49.399Z,41.81
2022-08-03T15:59:03.693Z,41.48
2022-08-03T16:01:17.723Z,41.12
2022-08-03T16:03:21.643Z,42.19
2022-08-03T16:05:23.535Z,42.76
2022-08-03T16:07:25.697Z,42.16
2022-08-03T16:09:43.224Z,42.98
2022-08-03T16:11:45.528Z,41.20
2022-08-03T16:14:13.726Z,42.33
2022-08-03T16:16:09.427Z,40.47
2022-08-03T16:18:11.168Z,40.88
2022-08-03T16:20:29.257Z,41.55
2022-08-03T16:22:40.748Z,42.11
2022-08-03T16:24:45.187Z,43.62
2022-08-03T16:26:47.442Z,42.89
2022-08-03T16:28:49.308Z,42.75
2022-08-03T16:30:51.076Z,43.35
2022-08-03T16:32:52.920Z,41.87
2022-08-03T16:34:54.833Z,42.82
2022-08-03T16:36:56.611Z,41.12
2022-08-03T16:38:58.678Z,41.63
2022-08-03T16:41:00.536Z,41.64
2022-08-03T16:43:10.016Z,43.17
2022-08-03T16:45:20.813Z,41.94
2022-08-03T16:47:22.883Z,41.24
2022-08-03T16:49:53.063Z,41.57
2022-08-03T16:51:50.350Z,40.55
2022-08-03T16:54:07.195Z,40.09
2022-08-03T16:56:10.674Z,40.99
2022-08-03T16:58:13.031Z,41.11
2022-08-03T17:00:33.574Z,41.05
2022-08-03T17:02:36.734Z,41.42
2022-08-03T17:04:40.250Z,41.65
2022-08-03T17:06:45.069Z,41.98
2022-08-03T17:08:52.344Z,42.55
2022-08-03T17:10:57.357Z,43.80
2022-08-03T17:12:59.071Z,43.09
2022-08-03T17:15:01.331Z,42.92
2022-08-03T17:17:08.369Z,43.77
2022-08-03T17:19:18.478Z,43.95
2022-08-03T17:21:26.477Z,44.17
2022-08-03T17:23:52.162Z,45.28
2022-08-03T17:26:02.263Z,45.67
2022-08-03T17:28:48.658Z,45.53
2022-08-03T17:30:28.470Z,45.98
2022-08-03T17:32:42.420Z,47.36
2022-08-03T17:34:46.681Z,47.55
2022-08-03T17:37:05.359Z,48.10
2022-08-03T17:39:07.469Z,48.94
2022-08-03T17:41:11.245Z,49.55
2022-08-03T17:44:14.207Z,49.71
2022-08-03T17:45:42.286Z,50.19
2022-08-03T17:47:57.493Z,50.21
2022-08-03T17:49:59.943Z,51.81
2022-08-03T17:52:04.774Z,52.65
2022-08-03T17:54:30.079Z,53.10
2022-08-03T17:56:57.261Z,53.58
2022-08-03T17:59:52.110Z,56.36
2022-08-03T18:02:29.858Z,59.01
2022-08-03T18:04:38.237Z,58.51
2022-08-03T18:06:55.800Z,61.33
2022-08-03T18:08:59.959Z,59.41
2022-08-03T18:13:58.723Z,61.45
2022-08-03T18:16:02.494Z,61.26
2022-08-03T18:18:10.278Z,62.91
2022-08-03T18:20:34.603Z,62.83
2022-08-03T18:22:34.894Z,64.26
2022-08-03T18:24:37.727Z,65.09
2022-08-03T18:26:42.608Z,65.47
2022-08-03T18:28:53.108Z,66.32
2022-08-03T18:30:55.402Z,66.23
2022-08-03T18:33:01.150Z,68.10
2022-08-03T18:35:19.962Z,68.48
2022-08-03T18:37:26.622Z,67.91
2022-08-03T18:39:28.817Z,70.05
2022-08-03T18:41:34.566Z,70.99
2022-08-03T18:43:46.629Z,73.17
2022-08-03T18:45:57.734Z,73.55
2022-08-03T18:48:30.021Z,74.95
2022-08-03T18:50:39.051Z,77.09
2022-08-03T18:52:52.920Z,75.91
2022-08-03T18:55:33.404Z,80.37
2022-08-03T18:57:47.281Z,78.53
2022-08-03T19:00:24.231Z,79.77
2022-08-03T19:02:41.721Z,81.37
2022-08-03T19:04:54.168Z,81.91
2022-08-03T19:07:03.135Z,83.56
2022-08-03T19:09:06.582Z,81.86
2022-08-03T19:11:28.175Z,84.35
2022-08-03T19:13:55.753Z,86.17
2022-08-03T19:16:02.704Z,88.28
2022-08-03T19:18:10.461Z,88.67
2022-08-03T19:20:12.975Z,88.82
2022-08-03T19:22:15.941Z,89.81
2022-08-03T19:24:21.988Z,88.82
2022-08-03T19:26:30.856Z,90.63
2022-08-03T19:28:34.891Z,91.37
2022-08-03T19:30:39.429Z,92.08
2022-08-03T19:32:48.182Z,92.00
2022-08-03T19:34:51.509Z,90.77
2022-08-03T19:36:55.240Z,91.00
2022-08-03T19:38:59.658Z,89.21
2022-08-03T19:41:04.261Z,88.72
2022-08-03T19:43:20.693Z,89.07
2022-08-03T19:46:05.217Z,88.87
2022-08-03T19:47:56.390Z,91.45
2022-08-03T19:50:13.968Z,91.99
2022-08-03T19:52:20.566Z,92.29
2022-08-03T19:54:32.124Z,92.94
2022-08-03T19:56:34.757Z,93.73
2022-08-03T19:58:37.528Z,95.39
2022-08-03T20:00:40.792Z,92.92
2022-08-03T20:02:50.995Z,94.00
2022-08-03T20:04:53.485Z,94.71
2022-08-03T20:06:58.105Z,94.96
2022-08-03T20:09:00.091Z,95.01
2022-08-03T20:11:02.343Z,97.48
2022-08-03T20:13:08.014Z,100.00
2022-08-03T20:15:10.088Z,100.00
2022-08-03T20:17:12.308Z,99.86
2022-08-03T20:19:22.819Z,99.17
2022-08-03T20:21:27.640Z,100.00
2022-08-03T20:23:38.095Z,100.00
2022-08-03T20:26:00.636Z,100.00
2022-08-03T20:28:14.021Z,100.00
2022-08-03T20:30:16.666Z,100.00
2022-08-03T20:32:24.694Z,100.00
2022-08-03T20:34:26.763Z,100.00
2022-08-03T20:36:29.027Z,100.00
2022-08-03T20:38:32.226Z,100.00
2022-08-03T20:40:45.803Z,100.00
2022-08-03T20:42:47.717Z,100.00
2022-08-03T20:45:04.482Z,100.00
2022-08-03T20:47:10.532Z,100.00
2022-08-03T20:49:12.117Z,100.00
2022-08-03T20:51:19.597Z,100.00
2022-08-03T20:53:57.442Z,100.00
2022-08-03T20:55:53.763Z,100.00
2022-08-03T20:58:04.912Z,100.00
2022-08-03T21:00:08.303Z,100.00
2022-08-03T21:02:13.773Z,100.00
2022-08-03T21:04:22.043Z,100.00
2022-08-03T21:06:28.853Z,100.00
2022-08-03T21:08:31.299Z,100.00
2022-08-03T21:10:37.925Z,100.00
2022-08-03T21:12:48.132Z,100.00
2022-08-03T21:13:03.947Z,60.40
2022-08-03T21:15:01.699Z,100.00
2022-08-03T21:17:14.017Z,100.00
2022-08-03T21:19:22.177Z,100.00
2022-08-03T21:21:24.432Z,100.00
2022-08-03T21:23:45.392Z,100.00
2022-08-03T21:25:51.722Z,100.00
2022-08-03T21:27:53.477Z,100.00
2022-08-03T21:29:55.606Z,100.00
2022-08-03T21:31:59.430Z,100.00
2022-08-03T21:34:04.860Z,100.00
2022-08-03T21:36:07.346Z,100.00
2022-08-03T21:38:09.271Z,100.00
2022-08-03T21:40:13.156Z,100.00
2022-08-03T21:42:14.890Z,100.00
2022-08-03T21:44:17.914Z,100.00
2022-08-03T21:46:33.141Z,100.00
2022-08-03T21:48:38.525Z,100.00
2022-08-03T21:50:42.320Z,100.00
2022-08-03T21:52:46.379Z,100.00
2022-08-03T21:54:49.940Z,100.00
2022-08-03T21:56:56.667Z,100.00
2022-08-03T21:59:06.138Z,100.00
2022-08-03T22:01:09.508Z,100.00
2022-08-03T22:03:17.374Z,100.00
2022-08-03T22:05:28.975Z,100.00
2022-08-03T22:07:42.532Z,100.00
2022-08-03T22:09:51.045Z,100.00
2022-08-03T22:11:53.637Z,100.00
2022-08-03T22:13:55.348Z,100.00
2022-08-03T22:15:57.617Z,100.00
2022-08-03T22:17:59.892Z,100.00
2022-08-03T22:20:02.178Z,100.00
2022-08-03T22:22:04.708Z,100.00
2022-08-03T22:24:07.395Z,100.00
2022-08-03T22:26:15.290Z,100.00
2022-08-03T22:28:17.091Z,100.00
2022-08-03T22:30:19.873Z,100.00
2022-08-03T22:32:21.719Z,100.00
2022-08-03T22:34:26.275Z,100.00
2022-08-03T22:36:30.163Z,100.00
2022-08-03T22:38:32.808Z,100.00
2022-08-03T22:40:34.720Z,100.00
2022-08-03T22:42:37.350Z,100.00
2022-08-03T22:44:40.347Z,100.00
2022-08-03T22:46:42.707Z,100.00
2022-08-03T22:48:46.746Z,100.00
2022-08-03T22:50:48.941Z,100.00
2022-08-03T22:52:51.187Z,100.00
2022-08-03T22:54:55.566Z,100.00
2022-08-03T22:56:58.454Z,100.00
2022-08-03T22:59:00.501Z,100.00
2022-08-03T23:01:08.088Z,100.00
2022-08-03T23:03:10.538Z,100.00
2022-08-03T23:06:01.980Z,100.00
2022-08-03T23:07:49.609Z,100.00
2022-08-03T23:09:51.893Z,100.00
2022-08-03T23:11:55.757Z,100.00
2022-08-03T23:13:59.762Z,100.00
2022-08-03T23:16:04.651Z,100.00
2022-08-03T23:18:07.557Z,100.00
2022-08-03T23:20:09.803Z,100.00
2022-08-03T23:22:17.096Z,100.00
2022-08-03T23:24:36.333Z,100.00
2022-08-03T23:26:38.545Z,100.00
2022-08-03T23:28:45.424Z,100.00
2022-08-03T23:30:50.156Z,100.00
2022-08-03T23:32:54.802Z,100.00
2022-08-03T23:35:00.826Z,100.00
2022-08-03T23:37:05.596Z,100.00
2022-08-03T23:39:08.704Z,100.00
2022-08-03T23:41:10.920Z,100.00
2022-08-03T23:43:18.413Z,100.00
2022-08-03T23:45:37.966Z,100.00
2022-08-03T23:47:46.999Z,100.00
2022-08-03T23:49:49.646Z,100.00
2022-08-03T23:52:29.067Z,100.00
2022-08-03T23:55:12.349Z,100.00
2022-08-03T23:57:52.560Z,100.00
